Terminal Aerodrome Forecast
Issued by NWS

Home | Current Version | Previous Version | Text Only | Print | Product List | Glossary Off
Versions: 1 2 3 4 5 6 7 8 9 10 11 12 13

000
FTUS43 KOAX 252332
TAFCDR
TAF
KCDR 252332Z 2600/2624 35010KT P6SM SCT050
     FM260300 VRB03KT P6SM SKC
     FM261200 25006KT P6SM BKN080
     FM261700 28014G22KT P6SM OVC080=

USA.gov is the U.S. government's official web portal to all federal, state and local government web resources and services.